Time;durP1;ratioP1;P1;durP2;ratioP2;P2;SDS_P1;SDS_P2;PMS_P1;PMS_P2;Temp;Humidity;BMP_temperature;BMP_pressure;BME280_temperature;BME280_humidity;BME280_pressure;Samples;Min_cycle;Max_cycle;Signal;HPM_P1;HPM_P2
2024/01/12 00:02:40;;;;;;;14.80;6.10;;;;;;;-2.79;95.13;100994.26;130601;1259;108293;-73
2024/01/12 00:05:46;;;;;;;13.50;6.30;;;;;;;-2.83;95.29;100998.41;130523;1259;106442;-73
2024/01/12 00:08:51;;;;;;;13.10;5.60;;;;;;;-2.82;94.89;101003.08;130534;1259;108763;-74
2024/01/12 00:11:57;;;;;;;460.40;129.40;;;;;;;-2.80;95.06;100997.42;130537;1259;108668;-73
2024/01/12 00:15:05;;;;;;;128.40;38.90;;;;;;;-2.77;95.12;100998.55;130539;1257;108823;-74
2024/01/12 00:18:11;;;;;;;31.50;12.20;;;;;;;-2.77;94.99;100997.50;130643;1257;107836;-74
2024/01/12 00:21:17;;;;;;;26.00;11.60;;;;;;;-2.82;94.03;101000.80;130546;1256;106535;-72
2024/01/12 00:24:23;;;;;;;22.30;8.70;;;;;;;-2.91;94.50;101005.77;130546;1259;105977;-73
2024/01/12 00:27:29;;;;;;;19.90;8.50;;;;;;;-3.00;94.21;101008.85;130562;1259;107675;-73
2024/01/12 00:30:34;;;;;;;18.50;8.50;;;;;;;-3.11;94.07;101009.91;130569;1256;108592;-72
2024/01/12 00:33:40;;;;;;;19.50;7.50;;;;;;;-3.21;94.17;101015.25;130598;1256;107851;-73
2024/01/12 00:36:48;;;;;;;18.10;7.40;;;;;;;-3.31;94.58;101013.11;130513;1256;108652;-72
2024/01/12 00:39:53;;;;;;;16.70;6.50;;;;;;;-3.40;94.69;101008.48;130552;1259;106335;-73
2024/01/12 00:42:59;;;;;;;14.70;6.20;;;;;;;-3.44;94.76;101002.70;130563;1259;107802;-73
2024/01/12 00:46:05;;;;;;;12.60;5.50;;;;;;;-3.48;94.26;101000.02;130586;1259;107796;-72
2024/01/12 00:49:11;;;;;;;12.20;5.00;;;;;;;-3.44;94.25;101005.33;130478;1259;107740;-73
2024/01/12 00:52:16;;;;;;;12.30;5.80;;;;;;;-3.45;94.07;101004.13;130567;1255;106702;-72
2024/01/12 00:55:22;;;;;;;16.30;6.30;;;;;;;-3.45;94.08;101003.62;130393;1255;107895;-72
2024/01/12 00:58:29;;;;;;;13.70;5.50;;;;;;;-3.44;93.99;101004.64;130564;1255;106895;-73
2024/01/12 01:01:35;;;;;;;12.20;4.80;;;;;;;-3.49;93.43;101007.37;130600;1259;107769;-73
2024/01/12 01:04:41;;;;;;;9.40;5.00;;;;;;;-3.57;93.32;101011.77;130670;1257;106567;-73
2024/01/12 01:07:46;;;;;;;14.30;5.30;;;;;;;-3.65;93.28;101010.98;130532;1254;107596;-73
2024/01/12 01:10:52;;;;;;;15.20;6.50;;;;;;;-3.72;93.41;101021.44;130514;1255;108616;-73
2024/01/12 01:13:57;;;;;;;13.80;5.30;;;;;;;-3.76;93.48;101022.59;130550;1259;106985;-73
2024/01/12 01:17:03;;;;;;;15.00;5.90;;;;;;;-3.82;93.31;101026.59;130518;1258;106383;-73
2024/01/12 01:20:11;;;;;;;13.00;4.80;;;;;;;-3.88;93.18;101027.09;130606;1259;107431;-72
2024/01/12 01:23:16;;;;;;;13.40;5.30;;;;;;;-3.88;93.40;101033.35;130618;1254;108000;-73
2024/01/12 01:26:22;;;;;;;12.70;5.20;;;;;;;-3.86;93.34;101034.67;130581;1259;107163;-73
2024/01/12 01:29:28;;;;;;;12.70;4.90;;;;;;;-3.86;93.10;101036.59;130516;1259;107575;-73
2024/01/12 01:32:33;;;;;;;12.40;5.10;;;;;;;-3.87;93.09;101039.91;130636;1257;107566;-73
2024/01/12 01:35:39;;;;;;;12.70;5.20;;;;;;;-3.91;93.12;101043.33;130596;1258;107729;-73
2024/01/12 01:38:44;;;;;;;11.20;4.50;;;;;;;-3.96;92.79;101042.59;130556;1259;108171;-73
2024/01/12 01:41:50;;;;;;;10.90;4.70;;;;;;;-3.99;92.88;101049.79;130559;1259;106668;-73
2024/01/12 01:44:55;;;;;;;11.70;5.10;;;;;;;-4.00;92.85;101054.67;130569;1259;107898;-73
2024/01/12 01:48:02;;;;;;;10.50;5.80;;;;;;;-3.99;93.08;101057.96;130636;1259;108680;-72
2024/01/12 01:51:07;;;;;;;9.60;5.10;;;;;;;-4.00;92.88;101059.73;130646;1257;107756;-73
2024/01/12 01:54:13;;;;;;;11.90;5.50;;;;;;;-4.01;92.61;101065.49;130527;1259;106515;-73
2024/01/12 01:57:19;;;;;;;10.30;4.30;;;;;;;-4.02;92.48;101069.35;130566;1259;106614;-74
2024/01/12 02:00:25;;;;;;;10.80;4.60;;;;;;;-4.04;92.12;101070.11;130577;1259;106315;-73
2024/01/12 02:03:31;;;;;;;9.00;4.20;;;;;;;-4.06;91.92;101072.06;130626;1259;107573;-73
2024/01/12 02:06:37;;;;;;;11.50;4.80;;;;;;;-4.14;91.30;101084.43;130586;1254;106718;-73
2024/01/12 02:09:43;;;;;;;12.00;5.20;;;;;;;-4.24;91.34;101082.75;130564;1257;107665;-74
2024/01/12 02:12:49;;;;;;;12.80;4.90;;;;;;;-4.29;91.91;101081.50;130575;1255;108500;-72
2024/01/12 02:15:55;;;;;;;11.10;4.60;;;;;;;-4.32;92.09;101088.34;130577;1259;107641;-73
2024/01/12 02:19:01;;;;;;;9.70;4.10;;;;;;;-4.37;91.82;101088.64;130562;1254;108672;-73
2024/01/12 02:22:06;;;;;;;45.70;11.70;;;;;;;-4.42;91.97;101091.18;130520;1259;107442;-72
2024/01/12 02:25:12;;;;;;;21.80;7.60;;;;;;;-4.44;91.94;101088.13;130573;1259;107850;-73
2024/01/12 02:28:19;;;;;;;27.60;8.70;;;;;;;-4.47;91.88;101091.83;130551;1259;107590;-73
2024/01/12 02:31:25;;;;;;;24.20;8.30;;;;;;;-4.48;91.91;101093.42;130542;1255;108354;-72
2024/01/12 02:34:30;;;;;;;33.30;11.40;;;;;;;-4.51;91.78;101087.42;130697;1260;106765;-73
2024/01/12 02:37:36;;;;;;;14.60;6.30;;;;;;;-4.54;91.64;101087.48;130536;1259;107612;-74
2024/01/12 02:40:42;;;;;;;12.00;4.80;;;;;;;-4.57;91.23;101091.03;130601;1256;107464;-73
2024/01/12 02:43:47;;;;;;;16.00;5.90;;;;;;;-4.59;91.35;101092.30;130589;1258;107677;-73
2024/01/12 02:46:53;;;;;;;15.00;6.50;;;;;;;-4.58;91.30;101096.98;130588;1255;107733;-73
2024/01/12 02:49:59;;;;;;;15.40;7.10;;;;;;;-4.54;91.36;101098.94;130622;1259;107540;-73
2024/01/12 02:53:05;;;;;;;28.50;12.40;;;;;;;-4.51;91.11;101106.00;130588;1259;106891;-73
2024/01/12 02:56:11;;;;;;;20.20;8.50;;;;;;;-4.51;90.91;101110.86;130603;1259;107641;-72
2024/01/12 02:59:17;;;;;;;19.10;7.00;;;;;;;-4.56;90.47;101105.23;130651;1259;107030;-72
2024/01/12 03:02:22;;;;;;;14.50;6.50;;;;;;;-4.62;90.35;101102.27;130591;1259;105885;-72
2024/01/12 03:05:28;;;;;;;12.50;5.50;;;;;;;-4.67;90.06;101114.02;130680;1259;108671;-72
2024/01/12 03:08:33;;;;;;;13.90;5.50;;;;;;;-4.79;89.85;101113.74;130505;1258;106934;-72
2024/01/12 03:11:39;;;;;;;18.90;8.10;;;;;;;-4.84;89.79;101116.48;130549;1257;108003;-74
2024/01/12 03:14:44;;;;;;;23.40;9.20;;;;;;;-4.92;89.38;101118.03;130552;1258;107819;-74
2024/01/12 03:17:50;;;;;;;19.00;8.40;;;;;;;-5.00;89.27;101110.91;130627;1259;107780;-73
2024/01/12 03:20:57;;;;;;;19.50;7.20;;;;;;;-5.06;88.98;101108.98;130518;1259;108651;-73
2024/01/12 03:24:03;;;;;;;24.70;9.20;;;;;;;-5.15;88.84;101109.15;130548;1259;108833;-72
2024/01/12 03:27:08;;;;;;;60.30;18.20;;;;;;;-5.22;88.54;101104.44;130547;1256;107837;-73
2024/01/12 03:30:15;;;;;;;31.30;10.70;;;;;;;-5.31;88.42;101111.74;130592;1259;108608;-73
2024/01/12 03:33:20;;;;;;;14.20;6.40;;;;;;;-5.39;88.18;101115.36;130670;1260;106280;-72
2024/01/12 03:36:27;;;;;;;62.60;20.30;;;;;;;-5.51;87.73;101119.77;130241;1258;483032;-72
2024/01/12 03:39:33;;;;;;;221.50;48.20;;;;;;;-5.62;88.04;101117.89;130566;1259;106747;-73
2024/01/12 03:42:38;;;;;;;85.20;23.00;;;;;;;-5.68;88.10;101120.95;130555;1259;108718;-73
2024/01/12 03:45:44;;;;;;;68.50;20.60;;;;;;;-5.73;88.04;101125.91;130576;1259;107686;-72
2024/01/12 03:48:50;;;;;;;36.70;12.60;;;;;;;-5.80;87.82;101131.56;130628;1259;108636;-73
2024/01/12 03:51:55;;;;;;;33.70;11.60;;;;;;;-5.89;87.73;101135.55;130608;1259;107634;-72
2024/01/12 03:55:01;;;;;;;33.40;10.90;;;;;;;-5.94;87.57;101136.86;130620;1256;107626;-72
2024/01/12 03:58:07;;;;;;;23.80;8.60;;;;;;;-6.00;87.42;101131.95;130571;1260;106131;-72
2024/01/12 04:01:13;;;;;;;32.90;10.90;;;;;;;-6.05;87.08;101132.39;130552;1259;108714;-73
2024/01/12 04:04:18;;;;;;;18.00;7.50;;;;;;;-6.08;86.91;101130.02;130524;1256;108583;-74
2024/01/12 04:07:24;;;;;;;19.10;7.50;;;;;;;-6.11;86.66;101131.63;130578;1259;107521;-72
2024/01/12 04:10:29;;;;;;;20.40;8.60;;;;;;;-6.10;86.31;101131.94;130516;1259;107732;-72
2024/01/12 04:13:35;;;;;;;18.70;7.80;;;;;;;-6.06;86.30;101142.46;130509;1259;108702;-73
2024/01/12 04:16:41;;;;;;;16.30;8.30;;;;;;;-6.09;86.17;101143.53;130523;1257;108633;-72
2024/01/12 04:19:46;;;;;;;12.80;5.60;;;;;;;-6.12;86.10;101134.76;130491;1259;108321;-72
2024/01/12 04:22:52;;;;;;;12.00;5.40;;;;;;;-6.17;85.82;101135.02;130366;1256;106330;-73
2024/01/12 04:25:58;;;;;;;13.90;5.10;;;;;;;-6.20;85.78;101139.23;130296;1259;108537;-71
2024/01/12 04:29:03;;;;;;;10.60;4.60;;;;;;;-6.24;85.68;101129.77;130564;1259;106116;-72
2024/01/12 04:32:09;;;;;;;13.60;4.80;;;;;;;-6.29;85.08;101128.80;130614;1260;107498;-76
2024/01/12 04:35:15;;;;;;;12.70;4.90;;;;;;;-6.34;85.11;101134.76;130626;1259;106651;-73
2024/01/12 04:38:20;;;;;;;13.30;5.40;;;;;;;-6.42;85.03;101139.74;130573;1259;108528;-71
2024/01/12 04:41:26;;;;;;;12.00;4.90;;;;;;;-6.46;84.65;101143.44;130545;1259;106213;-73
2024/01/12 04:44:32;;;;;;;12.10;4.90;;;;;;;-6.47;84.68;101142.08;130560;1260;107743;-72
2024/01/12 04:47:37;;;;;;;15.20;5.50;;;;;;;-6.50;84.23;101140.73;130572;1257;109314;-73
2024/01/12 04:50:43;;;;;;;15.60;5.80;;;;;;;-6.53;84.30;101148.02;130645;1259;108607;-73
2024/01/12 04:53:48;;;;;;;19.40;6.50;;;;;;;-6.53;84.35;101146.98;130548;1259;107243;-72
2024/01/12 04:56:54;;;;;;;20.20;6.70;;;;;;;-6.55;84.40;101150.48;130579;1258;108590;-72
2024/01/12 04:59:59;;;;;;;14.20;5.30;;;;;;;-6.56;84.30;101152.25;130580;1257;107843;-73
2024/01/12 05:03:05;;;;;;;11.80;5.10;;;;;;;-6.57;84.23;101151.38;131004;1259;107689;-72
2024/01/12 05:06:11;;;;;;;10.20;4.40;;;;;;;-6.58;84.08;101156.41;130776;1259;107628;-72
2024/01/12 05:09:17;;;;;;;14.00;4.70;;;;;;;-6.60;84.30;101152.81;131584;1257;106771;-72
2024/01/12 05:12:23;;;;;;;14.30;4.70;;;;;;;-6.60;83.97;101153.33;130558;1259;108704;-72
2024/01/12 05:15:28;;;;;;;10.10;4.10;;;;;;;-6.59;84.02;101156.44;130588;1258;105433;-71
2024/01/12 05:18:34;;;;;;;10.30;4.40;;;;;;;-6.62;84.15;101160.11;130620;1259;107699;-71
2024/01/12 05:21:40;;;;;;;10.30;4.20;;;;;;;-6.61;83.51;101158.72;130278;1257;109327;-72
2024/01/12 05:24:46;;;;;;;10.70;4.70;;;;;;;-6.61;83.91;101164.95;130571;1258;107610;-71
2024/01/12 05:27:51;;;;;;;11.10;4.80;;;;;;;-6.62;84.00;101162.70;130560;1259;108125;-72
2024/01/12 05:30:57;;;;;;;10.80;4.00;;;;;;;-6.61;83.93;101164.95;130586;1258;106676;-72
2024/01/12 05:34:03;;;;;;;9.70;3.70;;;;;;;-6.61;83.97;101168.23;130627;1257;107705;-71
2024/01/12 05:37:08;;;;;;;9.70;3.30;;;;;;;-6.64;83.62;101168.09;130559;1259;107393;-72
2024/01/12 05:40:14;;;;;;;6.40;3.30;;;;;;;-6.57;83.54;101170.77;130707;1259;107748;-73
2024/01/12 05:43:21;;;;;;;8.60;3.50;;;;;;;-6.49;83.92;101165.45;130517;1256;106360;-72
2024/01/12 05:46:27;;;;;;;8.70;3.80;;;;;;;-6.43;83.70;101168.13;130559;1259;108563;-73
2024/01/12 05:49:33;;;;;;;7.50;3.30;;;;;;;-6.33;83.33;101167.47;130591;1264;106844;-72
2024/01/12 05:52:39;;;;;;;7.90;3.20;;;;;;;-6.24;83.49;101172.88;130547;1256;107162;-72
2024/01/12 05:55:45;;;;;;;7.70;3.40;;;;;;;-6.16;83.40;101167.56;130647;1254;106572;-72
2024/01/12 05:58:51;;;;;;;9.40;3.80;;;;;;;-6.10;83.13;101171.27;130583;1259;108585;-72
2024/01/12 06:01:57;;;;;;;13.50;5.20;;;;;;;-6.09;83.06;101171.94;130573;1259;108779;-74
2024/01/12 06:05:03;;;;;;;19.60;7.90;;;;;;;-6.04;83.24;101176.52;130585;1258;108834;-73
2024/01/12 06:08:09;;;;;;;17.00;7.10;;;;;;;-5.99;83.34;101174.55;130585;1259;107679;-72
2024/01/12 06:11:15;;;;;;;17.50;6.40;;;;;;;-5.95;83.55;101178.10;130674;1258;106351;-72
2024/01/12 06:14:20;;;;;;;22.70;9.20;;;;;;;-5.88;83.50;101179.89;130575;1259;108457;-74
2024/01/12 06:17:26;;;;;;;16.30;6.50;;;;;;;-5.85;83.40;101175.69;130690;1255;106864;-73
2024/01/12 06:20:31;;;;;;;15.00;6.00;;;;;;;-5.81;83.62;101177.34;130731;1256;107726;-72
2024/01/12 06:23:37;;;;;;;11.70;4.70;;;;;;;-5.79;83.25;101179.39;130661;1259;106246;-71
2024/01/12 06:26:45;;;;;;;12.90;5.60;;;;;;;-5.79;83.34;101176.45;130561;1259;107769;-70
2024/01/12 06:29:50;;;;;;;11.20;4.60;;;;;;;-5.78;83.25;101174.16;130429;1254;108958;-71
2024/01/12 06:32:56;;;;;;;11.20;4.50;;;;;;;-5.74;83.39;101166.83;130644;1256;107790;-71
2024/01/12 06:36:01;;;;;;;11.90;5.30;;;;;;;-5.71;83.55;101161.91;130607;1259;108632;-71
2024/01/12 06:39:08;;;;;;;17.40;6.80;;;;;;;-5.70;83.28;101169.52;130391;1256;106393;-71
2024/01/12 06:42:14;;;;;;;28.50;12.00;;;;;;;-5.75;83.23;101164.75;130691;1259;108661;-69
2024/01/12 06:45:20;;;;;;;22.30;8.60;;;;;;;-5.76;83.37;101169.27;130391;1260;108998;-69
2024/01/12 06:48:25;;;;;;;22.70;7.60;;;;;;;-5.77;83.36;101168.95;130507;1260;107975;-70
2024/01/12 06:51:31;;;;;;;12.70;5.50;;;;;;;-5.77;83.26;101171.03;130430;1259;107549;-70
2024/01/12 06:54:37;;;;;;;9.40;3.70;;;;;;;-5.74;83.33;101169.06;130495;1256;108882;-71
2024/01/12 06:57:43;;;;;;;8.30;3.90;;;;;;;-5.72;83.25;101169.02;130279;1259;106932;-71
2024/01/12 07:00:49;;;;;;;9.60;3.70;;;;;;;-5.67;83.43;101167.03;130564;1259;106481;-70
2024/01/12 07:03:55;;;;;;;10.80;4.60;;;;;;;-5.62;83.32;101167.81;130279;1259;108231;-70
2024/01/12 07:07:00;;;;;;;14.20;5.30;;;;;;;-5.57;83.24;101164.09;130303;1261;107229;-71
2024/01/12 07:10:08;;;;;;;13.40;5.60;;;;;;;-5.53;83.18;101167.82;130551;1268;106705;-71
2024/01/12 07:13:14;;;;;;;13.60;5.80;;;;;;;-5.46;83.58;101168.05;130610;1259;106545;-71
2024/01/12 07:16:20;;;;;;;14.40;6.90;;;;;;;-5.41;83.35;101165.53;130411;1259;108057;-70
2024/01/12 07:19:25;;;;;;;13.30;6.00;;;;;;;-5.38;83.37;101164.42;130287;1259;110401;-73
2024/01/12 07:22:31;;;;;;;15.60;6.50;;;;;;;-5.33;83.29;101169.02;130849;1258;107038;-74
2024/01/12 07:25:38;;;;;;;14.10;6.10;;;;;;;-5.28;83.46;101170.48;130474;1259;108579;-73
2024/01/12 07:28:44;;;;;;;13.40;5.90;;;;;;;-5.23;83.48;101169.69;130413;1256;107878;-73
2024/01/12 07:31:49;;;;;;;10.30;5.10;;;;;;;-5.19;83.55;101170.29;130532;1259;106393;-73
2024/01/12 07:34:55;;;;;;;11.10;4.80;;;;;;;-5.16;83.36;101167.29;130572;1261;106194;-71
2024/01/12 07:38:00;;;;;;;10.10;5.10;;;;;;;-5.11;83.49;101173.27;130599;1257;108404;-72
2024/01/12 07:41:06;;;;;;;14.60;5.90;;;;;;;-5.06;83.55;101175.42;130803;1256;108567;-72
2024/01/12 07:44:12;;;;;;;12.10;5.50;;;;;;;-5.05;83.31;101171.73;130552;1259;106670;-73
2024/01/12 07:47:18;;;;;;;10.70;5.30;;;;;;;-4.98;83.42;101176.11;130631;1256;108057;-73
2024/01/12 07:50:24;;;;;;;11.60;5.20;;;;;;;-4.90;83.47;101174.22;130638;1255;108444;-74
2024/01/12 07:53:30;;;;;;;11.00;5.10;;;;;;;-4.81;83.34;101174.89;130682;1267;106574;-74
2024/01/12 07:56:35;;;;;;;10.30;5.30;;;;;;;-4.70;83.77;101167.71;130588;1260;106386;-75
2024/01/12 07:59:41;;;;;;;12.30;6.40;;;;;;;-4.54;83.68;101163.52;130587;1259;106129;-74
2024/01/12 08:02:46;;;;;;;15.00;7.90;;;;;;;-4.40;83.87;101165.48;130528;1259;107719;-72
2024/01/12 08:05:52;;;;;;;18.10;9.60;;;;;;;-4.27;84.11;101160.30;130531;1269;106679;-73
2024/01/12 08:08:58;;;;;;;25.30;11.50;;;;;;;-4.13;84.61;101155.63;130511;1259;108923;-73
2024/01/12 08:12:04;;;;;;;79.90;30.50;;;;;;;-3.93;84.62;101157.23;130656;1259;107569;-74
2024/01/12 08:15:10;;;;;;;389.70;132.40;;;;;;;-3.71;85.07;101160.84;130782;1256;108564;-72
2024/01/12 08:18:16;;;;;;;125.90;45.10;;;;;;;-3.49;85.18;101165.66;130560;1259;107536;-73
2024/01/12 08:21:22;;;;;;;800.90;275.10;;;;;;;-3.35;84.67;101167.18;130586;1257;108789;-72
2024/01/12 08:24:27;;;;;;;1082.70;377.30;;;;;;;-3.25;85.03;101173.35;130520;1260;107821;-73
2024/01/12 08:27:33;;;;;;;701.40;215.40;;;;;;;-3.12;85.24;101172.81;130533;1257;108960;-71
2024/01/12 08:30:38;;;;;;;874.50;296.20;;;;;;;-2.99;85.23;101172.81;130529;1259;106660;-73
2024/01/12 08:33:48;;;;;;;679.30;262.00;;;;;;;-2.91;84.99;101171.01;130620;1263;108465;-73
2024/01/12 08:36:53;;;;;;;604.60;255.70;;;;;;;-2.84;84.70;101166.81;130526;1262;108527;-73
2024/01/12 08:39:59;;;;;;;304.40;118.40;;;;;;;-2.80;84.60;101166.31;130773;1260;109140;-73
2024/01/12 08:43:05;;;;;;;184.70;78.70;;;;;;;-2.74;85.02;101154.84;130550;1259;107615;-73
2024/01/12 08:46:11;;;;;;;135.70;72.00;;;;;;;-2.64;85.19;101150.36;130555;1259;106253;-73
2024/01/12 08:49:16;;;;;;;94.90;47.90;;;;;;;-2.56;85.18;101143.66;130577;1260;108567;-71
2024/01/12 08:52:22;;;;;;;112.10;58.90;;;;;;;-2.49;85.29;101151.63;130534;1259;108735;-71
2024/01/12 08:55:27;;;;;;;119.40;61.80;;;;;;;-2.41;85.45;101149.11;130586;1269;108691;-73
2024/01/12 08:58:33;;;;;;;64.40;33.10;;;;;;;-2.32;85.24;101154.94;130716;1260;107803;-73
2024/01/12 09:01:39;;;;;;;45.10;22.70;;;;;;;-2.24;85.34;101153.11;130702;1268;106802;-73
2024/01/12 09:04:45;;;;;;;43.90;22.70;;;;;;;-2.18;85.21;101152.89;130721;1257;106448;-74
2024/01/12 09:07:51;;;;;;;27.20;12.50;;;;;;;-2.11;85.22;101141.36;130627;1259;108646;-74
2024/01/12 09:10:57;;;;;;;22.70;11.10;;;;;;;-2.01;85.23;101131.95;130635;1260;108662;-72
2024/01/12 09:14:03;;;;;;;23.60;9.00;;;;;;;-1.87;85.35;101129.42;130703;1254;106606;-74
2024/01/12 09:17:08;;;;;;;22.90;11.40;;;;;;;-1.72;85.56;101139.89;130595;1259;109103;-72
2024/01/12 09:20:15;;;;;;;17.70;10.00;;;;;;;-1.56;85.33;101142.64;130716;1267;107820;-73
2024/01/12 09:23:20;;;;;;;26.40;14.70;;;;;;;-1.41;85.35;101140.91;130567;1257;108679;-73
2024/01/12 09:26:26;;;;;;;20.90;11.10;;;;;;;-1.30;85.20;101132.99;130535;1260;108627;-73
2024/01/12 09:29:31;;;;;;;55.40;21.30;;;;;;;-1.24;84.76;101131.38;130679;1259;107464;-74
2024/01/12 09:32:37;;;;;;;49.80;19.60;;;;;;;-1.26;84.24;101130.75;130656;1259;108450;-73
2024/01/12 09:35:43;;;;;;;30.20;13.50;;;;;;;-1.23;84.77;101126.45;130629;1258;108673;-73
2024/01/12 09:38:48;;;;;;;21.40;10.80;;;;;;;-1.18;84.56;101116.85;130594;1259;106383;-73
2024/01/12 09:42:00;;;;;;;18.30;10.90;;;;;;;-1.12;84.78;101112.96;130729;1259;108984;-73
2024/01/12 09:45:07;;;;;;;17.70;8.30;;;;;;;-1.05;84.82;101106.22;130543;1263;106930;-74
2024/01/12 09:48:13;;;;;;;16.40;7.90;;;;;;;-0.99;84.68;101101.45;130552;1260;106991;-74
2024/01/12 09:51:19;;;;;;;15.20;8.50;;;;;;;-0.93;84.61;101097.91;130701;1259;107330;-72
2024/01/12 09:54:25;;;;;;;15.10;7.50;;;;;;;-0.90;84.32;101098.66;130677;1259;107188;-73
2024/01/12 09:57:31;;;;;;;27.60;12.70;;;;;;;-0.88;84.36;101088.63;130807;1267;106463;-72
2024/01/12 10:00:37;;;;;;;191.90;78.70;;;;;;;-0.86;83.97;101081.91;130837;1254;108516;-72
2024/01/12 10:03:44;;;;;;;199.30;79.00;;;;;;;-0.87;83.84;101080.75;130782;1259;108540;-73
2024/01/12 10:06:50;;;;;;;341.30;140.70;;;;;;;-0.84;84.04;101078.69;130774;1259;106751;-72
2024/01/12 10:09:56;;;;;;;645.40;319.00;;;;;;;-0.81;84.15;101074.90;130637;1268;108478;-75
2024/01/12 10:13:03;;;;;;;394.10;151.20;;;;;;;-0.79;83.73;101072.04;130775;1260;106410;-72
2024/01/12 10:16:09;;;;;;;402.70;174.90;;;;;;;-0.77;83.92;101067.43;130604;1261;106195;-72
2024/01/12 10:19:14;;;;;;;172.80;66.60;;;;;;;-0.71;84.10;101060.05;130648;1263;106994;-71
2024/01/12 10:22:20;;;;;;;109.30;49.60;;;;;;;-0.67;83.54;101053.06;130568;1267;108658;-71
2024/01/12 10:25:26;;;;;;;89.40;48.20;;;;;;;-0.70;83.19;101056.13;130581;1259;106964;-71
2024/01/12 10:28:32;;;;;;;50.70;26.00;;;;;;;-0.79;82.84;101052.30;130568;1259;108591;-71
2024/01/12 10:31:43;;;;;;;24.20;13.00;;;;;;;-0.87;83.06;101059.77;130636;1261;107584;-72
2024/01/12 10:34:50;;;;;;;22.10;12.60;;;;;;;-0.98;82.03;101053.59;130661;1266;107515;-71
2024/01/12 10:38:01;;;;;;;17.60;9.90;;;;;;;-1.05;82.59;101049.81;130562;1261;106977;-71
2024/01/12 10:41:11;;;;;;;28.70;18.80;;;;;;;-1.09;82.17;101049.09;130788;1267;108759;-71
2024/01/12 10:44:22;;;;;;;19.20;11.20;;;;;;;-1.14;81.52;101050.89;130665;1264;106611;-70
2024/01/12 10:47:34;;;;;;;24.90;17.40;;;;;;;-1.16;82.37;101045.72;130640;1257;107650;-71
2024/01/12 10:50:46;;;;;;;20.80;12.70;;;;;;;-1.14;81.86;101040.58;130775;1257;108076;-72
2024/01/12 10:54:01;;;;;;;24.60;15.40;;;;;;;-1.16;81.59;101029.83;130626;1260;108371;-70
2024/01/12 10:57:08;;;;;;;18.50;9.50;;;;;;;-1.16;80.29;101021.08;130283;1259;108703;-72
2024/01/12 11:00:16;;;;;;;208.20;93.80;;;;;;;-1.13;80.75;101018.20;130583;1255;107736;-72
2024/01/12 11:03:23;;;;;;;78.90;37.10;;;;;;;-1.10;80.39;101021.38;130581;1259;108704;-71
2024/01/12 11:06:30;;;;;;;42.30;17.20;;;;;;;-1.14;80.68;101024.54;131125;1264;107730;-72
2024/01/12 11:09:36;;;;;;;64.30;29.90;;;;;;;-1.26;79.88;101013.96;130538;1257;106759;-72
2024/01/12 11:12:44;;;;;;;36.50;17.30;;;;;;;-1.35;80.34;101010.98;130472;1259;107245;-71
2024/01/12 11:15:51;;;;;;;29.20;15.70;;;;;;;-1.39;80.79;101001.91;130583;1261;108490;-72
2024/01/12 11:18:56;;;;;;;27.60;17.30;;;;;;;-1.30;80.98;100989.88;130521;1257;107184;-72
2024/01/12 11:22:08;;;;;;;25.70;14.40;;;;;;;-1.21;80.54;100979.05;130570;1269;106121;-72
2024/01/12 11:25:15;;;;;;;26.20;14.00;;;;;;;-1.20;80.24;100969.23;130620;1260;108613;-75
2024/01/12 11:28:20;;;;;;;18.20;9.70;;;;;;;-1.20;80.05;100958.05;130714;1267;107701;-72
2024/01/12 11:31:30;;;;;;;15.20;8.00;;;;;;;-1.20;80.25;100945.10;130591;1260;109428;-73
2024/01/12 11:34:38;;;;;;;16.10;8.50;;;;;;;-1.18;80.02;100935.11;130629;1261;106668;-73
2024/01/12 11:37:45;;;;;;;13.30;7.30;;;;;;;-1.19;79.65;100935.52;130865;1258;106907;-75
2024/01/12 11:40:51;;;;;;;14.10;7.90;;;;;;;-1.23;79.62;100931.28;130821;1259;107707;-73
2024/01/12 11:43:57;;;;;;;22.40;12.60;;;;;;;-1.22;79.92;100923.71;130588;1259;106629;-73
2024/01/12 11:47:05;;;;;;;14.70;7.70;;;;;;;-1.19;79.73;100912.60;130570;1271;108342;-74
2024/01/12 11:50:14;;;;;;;16.50;7.80;;;;;;;-1.17;79.65;100907.30;131139;1254;107646;-73
2024/01/12 11:53:19;;;;;;;13.90;6.40;;;;;;;-1.17;79.33;100915.00;130615;1260;108570;-73
2024/01/12 11:56:26;;;;;;;14.50;7.20;;;;;;;-1.20;79.51;100910.89;130510;1261;108773;-74
2024/01/12 11:59:32;;;;;;;12.90;6.30;;;;;;;-1.19;79.14;100912.60;130614;1260;108705;-74
2024/01/12 12:02:37;;;;;;;14.30;6.30;;;;;;;-1.15;78.56;100909.00;130579;1259;106528;-74
2024/01/12 12:05:43;;;;;;;15.60;8.50;;;;;;;-1.13;79.52;100894.73;130744;1267;106507;-73
2024/01/12 12:08:52;;;;;;;15.20;7.30;;;;;;;-1.02;79.74;100883.98;130527;1261;107737;-72
2024/01/12 12:11:58;;;;;;;14.30;7.30;;;;;;;-0.93;79.50;100878.39;130603;1260;107639;-75
2024/01/12 12:15:07;;;;;;;12.50;6.00;;;;;;;-0.85;79.50;100869.67;130605;1268;107735;-72
2024/01/12 12:18:13;;;;;;;14.20;7.10;;;;;;;-0.78;79.55;100868.85;130656;1261;106467;-74
2024/01/12 12:21:19;;;;;;;14.80;7.50;;;;;;;-0.72;79.58;100866.66;130594;1261;107911;-72
2024/01/12 12:24:25;;;;;;;13.60;7.40;;;;;;;-0.67;79.54;100860.00;130520;1260;108597;-72
2024/01/12 12:27:31;;;;;;;15.00;7.30;;;;;;;-0.62;79.81;100859.61;130605;1260;108626;-72
2024/01/12 12:30:39;;;;;;;28.80;13.20;;;;;;;-0.54;80.05;100850.87;130570;1259;107745;-72
2024/01/12 12:33:46;;;;;;;36.60;16.90;;;;;;;-0.42;79.84;100847.89;130582;1267;107358;-73
2024/01/12 12:36:51;;;;;;;61.70;34.30;;;;;;;-0.32;80.03;100839.95;130601;1268;107418;-72
2024/01/12 12:39:57;;;;;;;62.40;35.50;;;;;;;-0.14;80.30;100835.77;130648;1254;106491;-71
2024/01/12 12:43:03;;;;;;;33.40;18.80;;;;;;;0.02;79.68;100840.11;130796;1254;108351;-72
2024/01/12 12:46:09;;;;;;;67.40;37.00;;;;;;;0.13;79.89;100836.46;130767;1260;107601;-73
2024/01/12 12:49:15;;;;;;;42.90;24.70;;;;;;;0.20;79.73;100826.68;130749;1260;107796;-73
2024/01/12 12:52:21;;;;;;;32.80;18.10;;;;;;;0.27;79.68;100821.46;130692;1254;106740;-72
2024/01/12 12:55:27;;;;;;;27.10;15.20;;;;;;;0.33;79.60;100812.08;130799;1260;106392;-72
2024/01/12 12:58:32;;;;;;;39.30;22.50;;;;;;;0.37;79.84;100807.52;130613;1260;107750;-73
2024/01/12 13:01:38;;;;;;;104.50;45.30;;;;;;;0.39;79.67;100801.29;130649;1255;107762;-72
2024/01/12 13:04:44;;;;;;;98.90;41.00;;;;;;;0.36;79.56;100795.10;130608;1257;106228;-73
2024/01/12 13:07:50;;;;;;;138.20;59.30;;;;;;;0.36;80.15;100781.98;130557;1261;107623;-71
2024/01/12 13:10:55;;;;;;;139.10;57.30;;;;;;;0.35;79.73;100769.78;130567;1257;108662;-72
2024/01/12 13:14:02;;;;;;;123.30;50.10;;;;;;;0.31;79.40;100761.95;130541;1260;108728;-72
2024/01/12 13:17:08;;;;;;;106.40;41.30;;;;;;;0.26;79.57;100746.09;131207;1254;108670;-72
2024/01/12 13:20:16;;;;;;;248.40;95.80;;;;;;;0.20;79.33;100733.41;130880;1257;106719;-72
2024/01/12 13:23:21;;;;;;;112.40;41.60;;;;;;;0.12;79.37;100720.85;130558;1254;108397;-72
2024/01/12 13:26:29;;;;;;;230.70;88.00;;;;;;;0.09;79.43;100721.02;130521;1270;107365;-72
2024/01/12 13:29:34;;;;;;;145.70;58.00;;;;;;;0.07;79.76;100711.52;130565;1259;108568;-73
2024/01/12 13:32:40;;;;;;;128.30;53.60;;;;;;;0.06;79.82;100706.30;130556;1261;107744;-72
2024/01/12 13:35:46;;;;;;;80.20;40.90;;;;;;;0.01;79.37;100699.89;130625;1258;106384;-72
2024/01/12 13:38:53;;;;;;;76.30;37.60;;;;;;;-0.09;79.64;100694.08;130600;1254;107748;-72
2024/01/12 13:42:00;;;;;;;30.90;15.20;;;;;;;-0.13;79.82;100691.81;130815;1259;108114;-72
2024/01/12 13:45:07;;;;;;;38.10;22.20;;;;;;;-0.11;79.99;100693.98;130610;1258;107588;-74
2024/01/12 13:48:13;;;;;;;28.10;17.10;;;;;;;-0.09;79.99;100697.20;130593;1254;107180;-74
2024/01/12 13:51:19;;;;;;;39.70;23.30;;;;;;;-0.03;79.76;100695.70;130614;1270;106744;-72
2024/01/12 13:54:26;;;;;;;27.60;13.60;;;;;;;0.04;80.06;100687.16;130564;1268;106658;-72